Accueil
METAR-TAF:

METAR-TAF

Aéroports :

Aéroport de Strasbourg-Entzheim

Strasbourg, France

latitude: 48-33N, longitude: 007-38E, altitude: 153 m

Observation

Le bulletin a été fait il y a 13 minutes, à 22:00 UTC
Vent 3 kt de nord-ouest
Température 21°C
Humidité 73%
Pression 1017 hPa
Visibilité 10 km ou plus
pas de nuages en-dessous de 1500 mètres et pas de cumulonimbus.

METAR: LFST 212200Z AUTO 31003KT CAVOK 21/16 Q1017 NOSIG

Heure: 00:13 (22:13 UTC)

Prévision

Le bulletin a été fait il y a 5 heures et 13 minutes, à 17:00 UTC
Prévision valable du 21 à 18 UTC au 22 à 18 UTC
Vent 5 kt de nord
Visibilité 10 km ou plus
pas de nuages en-dessous de 1500 mètres et pas de cumulonimbus.
Probabilité 40% :
Temporairement
du 22 à 15 UTC au 22 à 18 UTC
Quelques nuages à une hauteur de 7000 ft, Cumulus congestus.

TAF: LFST 211700Z 2118/2218 36005KT CAVOK PROB40 TEMPO 2215/2218 FEW070TCU

Observations et prévisions météorologiques de plus de 4000 aéroports (messages METAR et TAF).

Les stations disponibles sont représentées par des disques jaunes et rouges sur la carte.

Passer la souris dessus pour voir le nom de la station.

Cliquer dessus pour voir les observations et prévisions météorologiques.

Pour changer de carte: cliquez sur les boutons verts avec une croix noire pour zoomer, sur le bouton vert avec un tiret pour effectuer un zoom arrière, ou sur les flèches vertes pour les cartes adjacentes.


METAR-TAF: